KBNW/BNW METAR and TAF weather

Enter ICAO airport designator
Station Type Date Time Source
KBNW METAR 2019/06/15 21:55 UTC NOAA

KBNW 152155Z AUTO 02015KT 1/4SM +RA OVC003 19/18 A2973 RMK AO2 P0040


Station Type Date Time Source
KBNW Decoded METAR 2019/06/15 21:55 UTC NOAA

Boone Municipal, IA, United States (KBNW) 42-03N 093-51W
Jun 15, 2019 - 05:55 PM EDT / 2019.06.15 2155 UTC
Wind: from the NNE (020 degrees) at 17 MPH (15 KT):0
Visibility: 1/4 mile(s):0
Sky conditions: overcast
Weather: heavy rain
Precipitation last hour: 0.40 inches
Temperature: 66 F (19 C)
Dew Point: 64 F (18 C)
Relative Humidity: 93%
Pressure (altimeter): 29.73 in. Hg (1006 hPa)
ob: KBNW 152155Z AUTO 02015KT 1/4SM +RA OVC003 19/18 A2973 RMK AO2 P0040
cycle: 22

Station Type Date Time Source
KBNW TAF UTC NOAA

Error!

Example: see airport list